Westmoreland, New York
Current Conditions -  °F | °C
As of 8:53 AM on Thursday 23 Oct 2014 (Local Time) from KRME Reporting Station
Overcast Overcast  
Wind Chill:   Ceiling: 2100
Heat Index:   Visibility: 10mi
Dew Point:   Wind: 12mph
Humidity: 80%   Direction: 320°NW
Pressure: 29.95"   Gusts: NA
Location:  43.11°N, 75.4°W
Report Text: KRME 231253Z 32010KT 10SM OVC021 07/04 A2995 RMK AO2 SLP144 T00720039
Loading
Personal Weather Stations






























Interactive Weather Map
Tropical Storm Tracking
New forecast layout! Learn more

10-Day Weather Forecast

Advertisements
Track Severe Weather on mobile